Time;durP1;ratioP1;P1;durP2;ratioP2;P2;SDS_P1;SDS_P2;PMS_P1;PMS_P2;Temp;Humidity;BMP_temperature;BMP_pressure;BME280_temperature;BME280_humidity;BME280_pressure;Samples;Min_cycle;Max_cycle;Signal;HPM_P1;HPM_P2
2021/07/20 00:00:24;;;;;;;5.43;4.03;;;;;;;36.06;29.00;93962.59;5015590;28;20235;-56
2021/07/20 00:02:55;;;;;;;4.93;4.50;;;;;;;35.76;29.55;93961.63;5017020;28;20053;-52
2021/07/20 00:05:25;;;;;;;5.18;4.68;;;;;;;35.77;29.61;93960.41;5016935;28;20072;-50
2021/07/20 00:07:54;;;;;;;7.93;4.68;;;;;;;35.67;29.69;93959.69;5016428;28;20054;-51
2021/07/20 00:10:34;;;;;;;5.55;4.43;;;;;;;35.56;29.97;93964.09;5017603;28;20080;-51
2021/07/20 00:13:02;;;;;;;5.68;4.95;;;;;;;35.76;29.42;93956.94;5016187;28;20368;-51
2021/07/20 00:15:29;;;;;;;5.70;4.50;;;;;;;35.43;30.04;93964.28;5017551;28;20069;-51
2021/07/20 00:17:58;;;;;;;5.03;4.30;;;;;;;35.76;29.71;93961.63;5001583;28;20050;-52
2021/07/20 00:20:27;;;;;;;8.25;4.97;;;;;;;35.67;29.62;93964.38;5011881;28;20049;-54
2021/07/20 00:22:54;;;;;;;6.60;4.88;;;;;;;35.50;29.72;93967.41;5015755;28;20046;-51
2021/07/20 00:25:22;;;;;;;5.18;4.68;;;;;;;35.61;29.67;93960.75;5017243;28;20061;-53
2021/07/20 00:27:49;;;;;;;6.32;4.80;;;;;;;35.23;30.10;93962.75;5016565;28;20060;-50
2021/07/20 00:30:16;;;;;;;4.82;4.43;;;;;;;35.56;29.43;93967.56;5017434;28;20344;-51
2021/07/20 00:32:44;;;;;;;5.10;4.63;;;;;;;35.52;29.76;93966.97;5015920;28;20046;-51
2021/07/20 00:35:13;;;;;;;5.80;4.88;;;;;;;35.45;29.45;93953.69;5016665;28;20065;-49
2021/07/20 00:37:41;;;;;;;5.03;4.53;;;;;;;35.52;29.20;93962.28;5016824;28;20480;-50
2021/07/20 00:40:15;;;;;;;5.20;4.70;;;;;;;35.40;29.63;93955.06;4999613;28;20057;-52
2021/07/20 00:42:43;;;;;;;6.35;4.75;;;;;;;35.63;29.37;93958.31;4998526;28;20052;-51
2021/07/20 00:45:12;;;;;;;7.13;4.50;;;;;;;35.45;29.57;93959.88;5016885;28;20065;-54
2021/07/20 00:47:40;;;;;;;5.10;4.57;;;;;;;35.82;28.68;93955.13;5036149;28;20056;-58
2021/07/20 00:50:09;;;;;;;4.88;4.45;;;;;;;35.50;29.36;93959.25;5043673;28;20068;-52
2021/07/20 00:52:39;;;;;;;4.95;4.45;;;;;;;35.41;29.18;93948.44;5018271;28;20363;-53
2021/07/20 00:55:08;;;;;;;5.25;4.75;;;;;;;35.52;29.12;93956.84;5019001;28;20049;-51
2021/07/20 00:57:36;;;;;;;5.03;4.53;;;;;;;35.68;28.85;93944.13;5018936;28;20071;-52
2021/07/20 01:00:09;;;;;;;7.13;5.00;;;;;;;35.49;28.81;93938.75;5002536;28;20045;-53
2021/07/20 01:02:36;;;;;;;5.63;4.65;;;;;;;35.37;29.22;93947.06;5047137;28;20056;-51
2021/07/20 01:05:09;;;;;;;7.43;5.15;;;;;;;35.45;29.22;93943.59;5037730;28;20059;-51
2021/07/20 01:07:37;;;;;;;7.82;5.13;;;;;;;35.54;28.99;93927.25;5006501;28;20054;-49
2021/07/20 01:10:07;;;;;;;6.63;4.72;;;;;;;35.01;29.73;93937.72;5015933;28;20468;-51
2021/07/20 01:12:38;;;;;;;5.35;4.70;;;;;;;35.56;28.77;93942.34;5017764;28;20060;-50
2021/07/20 01:15:07;;;;;;;6.18;5.20;;;;;;;35.18;29.43;93947.06;5036197;28;20371;-52
2021/07/20 01:17:36;;;;;;;6.53;4.60;;;;;;;35.24;29.40;93947.22;5036042;28;20444;-51
2021/07/20 01:20:08;;;;;;;7.78;4.80;;;;;;;35.31;29.27;93946.13;5015641;28;20053;-50
2021/07/20 01:22:37;;;;;;;7.45;4.63;;;;;;;35.34;29.15;93946.00;5018335;28;20064;-53
2021/07/20 01:25:12;;;;;;;5.40;4.90;;;;;;;35.46;29.14;93949.78;5035907;28;20471;-50
2021/07/20 01:27:48;;;;;;;6.55;4.60;;;;;;;35.53;28.87;93944.75;5035708;28;20056;-53
2021/07/20 01:30:17;;;;;;;5.28;4.78;;;;;;;35.56;28.99;93942.34;5018413;28;20471;-55
2021/07/20 01:32:45;;;;;;;6.60;5.03;;;;;;;35.34;29.25;93948.72;5034131;28;20478;-49
2021/07/20 01:35:14;;;;;;;7.22;4.88;;;;;;;35.35;29.08;93961.09;5034366;28;20057;-52
2021/07/20 01:37:44;;;;;;;5.20;4.68;;;;;;;35.26;29.15;93950.22;5018452;28;20049;-56
2021/07/20 01:40:14;;;;;;;5.70;5.10;;;;;;;35.51;28.88;93957.31;4982975;28;20061;-50
2021/07/20 01:42:44;;;;;;;5.78;4.15;;;;;;;35.39;29.18;93953.53;5018775;28;20050;-54
2021/07/20 01:45:13;;;;;;;7.40;5.00;;;;;;;35.68;28.78;93946.84;5035034;28;20056;-54
2021/07/20 01:47:45;;;;;;;5.30;4.80;;;;;;;35.55;28.82;93955.19;5033692;28;20053;-50
2021/07/20 01:50:16;;;;;;;5.32;4.80;;;;;;;35.27;29.22;93954.44;5011591;28;20053;-52
2021/07/20 01:52:44;;;;;;;5.47;4.97;;;;;;;35.05;29.67;93953.84;5027238;28;20056;-54
2021/07/20 01:55:14;;;;;;;6.15;4.70;;;;;;;35.46;29.29;93952.50;5034437;28;20107;-49
2021/07/20 01:57:42;;;;;;;7.38;4.95;;;;;;;35.29;29.33;93957.47;5034292;28;20048;-52
2021/07/20 02:00:28;;;;;;;5.82;5.20;;;;;;;35.36;29.16;93954.44;5033692;28;20060;-52
2021/07/20 02:08:48;;;;;;;10.52;5.15;;;;;;;35.34;29.46;93956.88;5019887;28;20442;-50
2021/07/20 02:11:24;;;;;;;5.65;4.70;;;;;;;35.06;29.91;93960.78;5034692;28;20065;-54
2021/07/20 02:14:11;;;;;;;5.65;4.85;;;;;;;35.51;29.15;93960.78;5050168;28;20443;-55
2021/07/20 02:16:48;;;;;;;8.90;5.13;;;;;;;35.25;29.33;93962.28;5038863;28;20482;-53
2021/07/20 02:19:23;;;;;;;5.93;5.10;;;;;;;35.05;29.84;93965.47;5044546;28;20053;-51
2021/07/20 02:22:22;;;;;;;7.97;5.10;;;;;;;35.48;28.84;93963.66;5004905;28;20451;-53
2021/07/20 02:24:53;;;;;;;5.43;4.93;;;;;;;35.35;29.04;93958.38;5016774;28;20068;-53
2021/07/20 02:27:22;;;;;;;5.80;4.80;;;;;;;35.50;28.96;93967.41;5034883;28;20057;-50
2021/07/20 02:30:14;;;;;;;5.53;5.03;;;;;;;35.48;29.13;93964.41;5034591;28;20507;-51
2021/07/20 02:32:44;;;;;;;8.07;5.88;;;;;;;35.19;29.45;93964.13;5017065;28;20053;-54
2021/07/20 02:35:25;;;;;;;6.30;5.32;;;;;;;35.21;29.26;93961.69;5033645;28;20049;-53
2021/07/20 02:37:56;;;;;;;8.70;5.20;;;;;;;35.30;29.15;93964.41;5000394;28;20124;-58
2021/07/20 02:40:26;;;;;;;6.93;5.07;;;;;;;35.00;29.51;93959.91;4997239;28;20045;-49
2021/07/20 02:42:57;;;;;;;5.90;5.40;;;;;;;35.24;28.93;93960.78;5001064;28;20355;-55
2021/07/20 02:45:28;;;;;;;6.83;5.63;;;;;;;35.36;28.87;93961.84;5033970;28;20061;-53
2021/07/20 02:47:57;;;;;;;8.32;5.70;;;;;;;35.41;28.67;93953.84;5017024;28;20041;-53
2021/07/20 02:50:28;;;;;;;6.90;5.13;;;;;;;35.33;28.95;93962.72;5008069;28;20048;-53
2021/07/20 02:53:07;;;;;;;5.95;5.35;;;;;;;34.95;29.43;93960.50;5000760;28;20052;-56
2021/07/20 02:55:49;;;;;;;6.78;5.47;;;;;;;34.90;29.61;93959.91;5002152;28;20061;-51
2021/07/20 02:58:18;;;;;;;5.93;5.32;;;;;;;35.16;28.77;93965.03;5034620;28;20398;-53
2021/07/20 03:00:46;;;;;;;6.97;5.40;;;;;;;35.02;29.36;93971.06;5000631;28;20056;-52
2021/07/20 03:03:13;;;;;;;7.60;5.68;;;;;;;35.15;29.07;93968.97;5026027;28;20056;-53
2021/07/20 03:05:48;;;;;;;6.50;5.78;;;;;;;35.24;28.89;93977.09;5031618;28;20049;-50
2021/07/20 03:08:20;;;;;;;6.30;5.68;;;;;;;35.26;28.95;93974.66;4997507;28;20050;-50
2021/07/20 03:10:56;;;;;;;7.63;5.70;;;;;;;35.36;28.64;93976.19;4982249;28;20872;-52
2021/07/20 03:13:26;;;;;;;6.30;5.43;;;;;;;35.03;29.31;93972.56;5023067;28;20045;-54
2021/07/20 03:15:54;;;;;;;7.75;5.90;;;;;;;35.31;29.06;93976.78;5033381;28;20056;-51
2021/07/20 03:18:26;;;;;;;7.70;5.65;;;;;;;35.01;29.44;93977.69;5033399;28;20384;-50
2021/07/20 03:20:55;;;;;;;7.18;6.03;;;;;;;35.29;29.02;93983.88;5000085;28;20401;-52
2021/07/20 03:23:24;;;;;;;10.57;5.70;;;;;;;35.36;28.60;93972.72;5009230;28;20349;-54
2021/07/20 03:25:55;;;;;;;8.70;6.25;;;;;;;34.99;29.12;93974.69;5036157;28;20064;-51
2021/07/20 03:28:24;;;;;;;7.53;6.72;;;;;;;35.23;28.18;93970.16;5036691;28;20045;-50
2021/07/20 03:30:51;;;;;;;8.30;7.20;;;;;;;35.03;28.88;93983.44;5037889;28;20356;-50
2021/07/20 03:33:21;;;;;;;8.38;7.65;;;;;;;35.09;28.85;93981.59;5037937;28;20041;-54
2021/07/20 03:35:58;;;;;;;10.38;7.95;;;;;;;35.20;28.62;93988.13;5035299;28;20050;-51
2021/07/20 03:38:26;;;;;;;8.68;7.78;;;;;;;35.06;28.72;93986.00;5018216;28;20068;-50
2021/07/20 03:41:00;;;;;;;9.13;8.32;;;;;;;34.95;28.76;93990.38;4999805;28;20380;-49
2021/07/20 03:43:29;;;;;;;9.70;8.80;;;;;;;34.84;29.02;93998.94;5015292;28;20444;-51
2021/07/20 03:46:01;;;;;;;9.55;8.68;;;;;;;34.99;28.94;93999.13;5057274;28;20459;-51
2021/07/20 03:48:32;;;;;;;9.20;8.35;;;;;;;34.95;28.68;94009.38;5040712;28;20061;-51
2021/07/20 03:51:04;;;;;;;10.30;9.15;;;;;;;34.78;29.17;94009.63;4985343;28;20053;-53
2021/07/20 03:53:32;;;;;;;9.68;8.77;;;;;;;34.63;29.33;94022.28;4983186;28;20048;-53
2021/07/20 03:56:03;;;;;;;11.85;9.82;;;;;;;34.80;29.21;94015.34;5027783;28;20057;-52
2021/07/20 03:58:40;;;;;;;10.27;9.38;;;;;;;34.76;29.12;94014.75;5036559;28;20056;-52
2021/07/20 04:01:08;;;;;;;10.43;9.45;;;;;;;34.96;28.94;94021.75;5036404;28;20495;-50
2021/07/20 04:03:36;;;;;;;10.73;9.77;;;;;;;34.72;29.25;94019.56;5035966;28;20056;-49
2021/07/20 04:06:08;;;;;;;11.32;10.00;;;;;;;34.70;29.17;94016.56;5031215;28;20060;-53
2021/07/20 04:08:46;;;;;;;9.85;8.85;;;;;;;34.76;29.36;94016.72;5000280;28;20369;-50
2021/07/20 04:11:16;;;;;;;10.30;9.20;;;;;;;35.01;28.90;94016.47;4984389;28;20053;-50
2021/07/20 04:13:52;;;;;;;10.35;9.40;;;;;;;35.10;28.91;94024.63;4985078;28;20342;-49
2021/07/20 04:16:28;;;;;;;9.95;8.93;;;;;;;35.02;29.26;94031.56;5008080;28;20045;-50
2021/07/20 04:18:55;;;;;;;9.95;9.00;;;;;;;35.01;28.99;94018.44;5035061;28;20140;-52
2021/07/20 04:21:43;;;;;;;10.43;9.52;;;;;;;35.11;28.77;94028.84;5002058;28;20519;-53
2021/07/20 04:24:12;;;;;;;10.77;9.68;;;;;;;35.18;28.57;94027.81;4984081;28;20373;-52
2021/07/20 04:26:42;;;;;;;10.38;9.48;;;;;;;35.09;29.07;94019.63;5014145;28;20060;-52
2021/07/20 04:29:11;;;;;;;10.32;9.32;;;;;;;35.51;28.27;94036.13;5002334;28;20045;-50
2021/07/20 04:31:42;;;;;;;11.30;10.18;;;;;;;35.69;28.14;94022.50;5016411;28;20073;-48
2021/07/20 04:34:14;;;;;;;11.50;10.30;;;;;;;35.28;28.51;94029.31;5024767;28;20048;-47
2021/07/20 04:36:41;;;;;;;11.63;10.43;;;;;;;34.95;29.15;94031.09;5016226;28;20053;-55
2021/07/20 04:39:28;;;;;;;11.77;10.68;;;;;;;34.82;29.51;94031.19;5001628;28;20057;-65
2021/07/20 04:41:58;;;;;;;12.05;10.85;;;;;;;35.19;28.91;94040.19;5016805;28;20062;-48
2021/07/20 04:44:26;;;;;;;11.88;10.77;;;;;;;35.08;29.15;94024.31;4980410;28;20053;-44
2021/07/20 04:47:31;;;;;;;11.65;10.55;;;;;;;35.01;29.32;94026.56;4983489;28;20050;-48
2021/07/20 04:50:07;;;;;;;15.05;10.75;;;;;;;35.20;29.28;94031.56;5008328;28;20050;-59
2021/07/20 04:52:35;;;;;;;12.25;10.55;;;;;;;35.02;29.13;94028.84;5016357;28;20068;-59
2021/07/20 04:55:04;;;;;;;11.75;9.90;;;;;;;35.22;28.75;94028.41;4998996;28;20053;-54
2021/07/20 04:57:34;;;;;;;11.90;10.90;;;;;;;34.99;28.89;94031.72;4999778;28;20049;-55
2021/07/20 05:00:03;;;;;;;11.77;10.57;;;;;;;35.34;28.70;94035.66;5016039;28;20046;-54
2021/07/20 05:02:31;;;;;;;12.15;10.95;;;;;;;34.80;28.61;94026.22;4999203;28;20057;-55
2021/07/20 05:05:00;;;;;;;12.55;11.35;;;;;;;34.71;28.62;94034.34;4999154;28;20364;-56
2021/07/20 05:07:28;;;;;;;12.00;10.88;;;;;;;34.78;29.33;94027.88;5003373;28;20380;-59
2021/07/20 05:09:58;;;;;;;12.20;11.00;;;;;;;35.03;28.81;94026.88;4999549;28;20050;-54
2021/07/20 05:12:27;;;;;;;11.98;10.52;;;;;;;34.88;29.01;94032.16;4998149;28;20049;-59
2021/07/20 05:15:06;;;;;;;13.10;11.10;;;;;;;35.07;28.67;94024.75;4998953;28;20053;-56
2021/07/20 05:17:37;;;;;;;12.60;11.13;;;;;;;34.82;29.35;94039.34;5035780;28;20057;-56
2021/07/20 05:20:06;;;;;;;11.48;10.27;;;;;;;34.74;29.21;94028.03;5022847;28;20057;-56
2021/07/20 05:23:02;;;;;;;11.25;10.15;;;;;;;34.96;28.87;94032.63;4998517;28;20058;-55
2021/07/20 05:25:30;;;;;;;11.13;10.10;;;;;;;34.88;29.71;94038.34;4984981;28;20452;-53
2021/07/20 05:27:59;;;;;;;11.65;10.45;;;;;;;35.01;29.32;94040.16;5035906;28;20049;-55
2021/07/20 05:30:30;;;;;;;11.95;10.85;;;;;;;35.31;29.10;94041.97;5034386;28;20061;-55
2021/07/20 05:32:59;;;;;;;11.75;10.38;;;;;;;35.05;28.68;94046.19;5018362;28;20041;-56
2021/07/20 05:35:42;;;;;;;11.30;10.30;;;;;;;35.30;28.77;94050.59;5017443;28;20525;-55
2021/07/20 05:38:10;;;;;;;12.23;10.90;;;;;;;35.22;28.87;94048.16;4998654;28;20068;-58
2021/07/20 05:40:41;;;;;;;11.73;10.52;;;;;;;35.50;28.72;94048.94;4997539;28;20061;-57
2021/07/20 05:43:08;;;;;;;11.57;10.38;;;;;;;35.20;29.13;94047.88;5016198;28;20053;-54
2021/07/20 05:45:42;;;;;;;12.90;11.60;;;;;;;35.38;28.75;94058.00;5034526;28;20444;-55
2021/07/20 05:48:10;;;;;;;13.02;11.82;;;;;;;35.23;29.47;94054.34;5034736;28;20053;-53
2021/07/20 05:50:49;;;;;;;12.23;11.00;;;;;;;35.36;28.42;94054.97;5035039;28;20460;-58
2021/07/20 05:53:53;;;;;;;13.02;11.82;;;;;;;35.67;28.46;94051.34;4974530;28;20047;-57
2021/07/20 05:56:39;;;;;;;13.27;12.10;;;;;;;35.59;28.35;94056.34;5030756;28;20053;-55
2021/07/20 05:59:20;;;;;;;13.93;12.57;;;;;;;35.81;27.80;94059.63;5002792;28;20045;-58
2021/07/20 06:01:51;;;;;;;13.68;12.48;;;;;;;35.77;28.60;94050.88;4981453;28;20448;-56
2021/07/20 06:04:23;;;;;;;12.80;11.67;;;;;;;36.04;28.02;94062.94;4998946;28;20491;-59
2021/07/20 06:07:12;;;;;;;13.35;12.05;;;;;;;35.95;28.30;94061.00;4979755;28;20058;-54
2021/07/20 06:09:44;;;;;;;12.75;11.65;;;;;;;36.22;27.93;94062.13;4998087;28;20053;-54
2021/07/20 06:12:14;;;;;;;12.82;11.50;;;;;;;36.36;27.67;94056.03;5014797;28;20058;-59
2021/07/20 06:14:41;;;;;;;11.70;10.50;;;;;;;36.58;27.11;94062.00;4997638;28;20045;-55
2021/07/20 06:17:09;;;;;;;11.50;10.50;;;;;;;36.91;27.05;94066.69;5029705;28;20053;-54
2021/07/20 06:19:37;;;;;;;11.27;10.25;;;;;;;36.57;26.93;94065.94;5016831;28;20443;-58
2021/07/20 06:22:09;;;;;;;11.30;10.30;;;;;;;36.73;27.07;94068.28;5034127;28;20053;-54
2021/07/20 06:24:49;;;;;;;11.65;10.40;;;;;;;36.43;27.74;94066.59;5017186;28;20045;-56
2021/07/20 06:27:17;;;;;;;11.10;10.00;;;;;;;36.38;27.20;94070.69;5000455;28;20056;-54
2021/07/20 06:29:46;;;;;;;11.35;10.35;;;;;;;36.07;28.10;94079.09;5017475;28;20053;-54
2021/07/20 06:32:14;;;;;;;11.18;10.00;;;;;;;36.61;27.43;94088.28;5017279;28;20038;-54
2021/07/20 06:34:41;;;;;;;10.85;9.95;;;;;;;36.42;27.68;94086.84;5033656;28;20515;-56
2021/07/20 06:37:09;;;;;;;11.20;10.23;;;;;;;36.10;28.00;94089.06;4999702;28;20051;-55
2021/07/20 06:39:37;;;;;;;12.07;11.00;;;;;;;35.87;28.54;94084.25;5017448;28;20448;-55
2021/07/20 06:42:05;;;;;;;11.80;10.70;;;;;;;35.92;28.14;94083.66;5017204;28;20054;-55
2021/07/20 06:44:32;;;;;;;11.35;10.32;;;;;;;36.21;27.83;94083.16;5017198;28;20477;-55
2021/07/20 06:47:00;;;;;;;11.20;10.10;;;;;;;36.23;27.79;94085.41;5012454;28;20129;-53
2021/07/20 06:49:28;;;;;;;11.02;9.90;;;;;;;36.30;27.34;94080.41;5009849;28;20057;-54
2021/07/20 06:51:55;;;;;;;10.68;9.77;;;;;;;36.17;28.43;94087.22;4996869;28;20050;-57
2021/07/20 06:54:22;;;;;;;11.07;9.98;;;;;;;36.30;27.75;94085.06;5014977;28;20046;-54
2021/07/20 06:56:54;;;;;;;10.23;9.23;;;;;;;36.02;28.83;94093.31;5025059;28;20068;-55
2021/07/20 06:59:24;;;;;;;9.95;9.05;;;;;;;36.08;27.79;94080.59;5033128;28;20364;-54
2021/07/20 07:01:52;;;;;;;11.82;8.60;;;;;;;36.05;27.78;94081.50;5033318;28;20056;-56
2021/07/20 07:04:45;;;;;;;9.35;8.32;;;;;;;36.17;27.69;94081.78;5034489;28;20444;-56
2021/07/20 07:07:12;;;;;;;8.95;8.10;;;;;;;36.12;27.65;94086.63;5004057;28;20058;-55
2021/07/20 07:09:41;;;;;;;9.68;8.88;;;;;;;36.50;27.75;94082.63;4981366;28;20050;-53
2021/07/20 07:12:10;;;;;;;9.73;8.85;;;;;;;36.21;27.33;94087.84;4997222;28;20329;-54
2021/07/20 07:14:37;;;;;;;9.30;8.48;;;;;;;36.00;28.31;94087.56;4997377;28;20396;-56
2021/07/20 07:17:06;;;;;;;9.15;8.35;;;;;;;36.56;27.39;94086.22;5009469;28;20049;-57
2021/07/20 07:19:35;;;;;;;9.27;8.43;;;;;;;36.49;27.32;94083.81;5009354;28;20380;-57
2021/07/20 07:22:02;;;;;;;10.65;7.68;;;;;;;36.21;27.99;94087.84;4997177;28;20057;-58
2021/07/20 07:24:30;;;;;;;9.20;8.40;;;;;;;36.46;27.69;94095.63;5014592;28;20487;-55
2021/07/20 07:26:59;;;;;;;8.70;7.82;;;;;;;36.67;27.54;94097.34;5008264;28;20444;-61
2021/07/20 07:29:27;;;;;;;8.20;7.40;;;;;;;36.53;27.65;94094.53;5034332;28;20071;-56
2021/07/20 07:31:55;;;;;;;8.02;7.18;;;;;;;36.29;27.42;94094.44;5034073;28;20479;-57
2021/07/20 07:34:23;;;;;;;7.43;6.72;;;;;;;37.37;25.80;94096.38;5033240;28;20049;-49
2021/07/20 07:36:51;;;;;;;8.85;7.40;;;;;;;36.94;26.82;94098.44;5015365;28;20052;-51
2021/07/20 07:39:21;;;;;;;10.43;7.10;;;;;;;36.85;26.72;94093.06;5033706;28;20065;-50
2021/07/20 07:41:49;;;;;;;7.75;7.00;;;;;;;37.02;26.44;94099.63;5015578;28;20049;-52
2021/07/20 07:44:17;;;;;;;10.05;7.30;;;;;;;36.24;26.58;94103.22;5016294;28;20053;-48
2021/07/20 07:46:45;;;;;;;7.18;6.57;;;;;;;36.52;26.57;94093.78;5016523;28;20053;-46
2021/07/20 07:49:13;;;;;;;7.65;6.60;;;;;;;36.68;27.22;94093.41;5016534;28;20049;-48
2021/07/20 07:51:42;;;;;;;6.60;6.00;;;;;;;37.20;26.94;94098.72;5016099;28;20056;-67
2021/07/20 07:54:10;;;;;;;8.43;7.60;;;;;;;36.93;26.71;94094.97;5016843;28;20403;-68
2021/07/20 07:56:38;;;;;;;8.38;7.57;;;;;;;36.64;26.30;94097.50;5015808;28;20084;-61
2021/07/20 07:59:05;;;;;;;8.38;7.63;;;;;;;36.59;26.84;94096.16;5033989;28;20049;-66
2021/07/20 08:01:33;;;;;;;7.38;6.68;;;;;;;36.58;26.81;94085.75;5016497;28;20045;-54
2021/07/20 08:04:02;;;;;;;7.43;6.70;;;;;;;36.69;26.47;94089.47;5015419;28;20065;-46
2021/07/20 08:06:30;;;;;;;8.55;7.65;;;;;;;37.03;25.99;94096.44;5014318;28;20049;-48
2021/07/20 08:08:59;;;;;;;8.02;7.32;;;;;;;36.58;26.61;94089.22;5016786;28;20061;-48
2021/07/20 08:11:29;;;;;;;7.63;6.57;;;;;;;36.54;26.73;94096.81;5019900;28;20045;-47
2021/07/20 08:14:00;;;;;;;7.60;6.65;;;;;;;36.85;27.21;94093.81;5020003;28;20084;-48
2021/07/20 08:16:31;;;;;;;;;;;;;;;36.91;26.31;94089.22;5036693;28;20046;-47
2021/07/20 08:18:59;;;;;;;8.18;7.40;;;;;;;36.77;26.66;94089.16;5019728;28;20217;-47
2021/07/20 08:21:28;;;;;;;7.97;7.28;;;;;;;37.14;26.42;94087.72;5019712;28;20038;-47
2021/07/20 08:23:56;;;;;;;8.15;7.10;;;;;;;37.85;25.77;94089.66;5037099;28;20376;-48
2021/07/20 08:26:26;;;;;;;7.55;6.57;;;;;;;37.01;25.91;94098.13;5036565;28;20041;-49
2021/07/20 08:29:04;;;;;;;7.68;6.82;;;;;;;37.00;26.22;94091.91;5018932;28;20049;-47
2021/07/20 08:31:52;;;;;;;7.88;7.18;;;;;;;37.08;26.12;94092.31;5019437;28;20045;-47
2021/07/20 08:34:20;;;;;;;7.97;7.28;;;;;;;37.18;25.98;94090.28;5019593;28;20049;-51
2021/07/20 08:36:48;;;;;;;13.02;11.98;;;;;;;37.27;26.14;94088.28;5018096;28;20045;-46
2021/07/20 08:39:16;;;;;;;16.17;14.68;;;;;;;37.41;25.38;94086.81;5019486;28;20061;-49
2021/07/20 08:42:06;;;;;;;9.15;8.35;;;;;;;37.70;24.69;94086.09;5019318;28;20033;-47
2021/07/20 08:44:51;;;;;;;7.85;7.10;;;;;;;37.43;25.52;94094.50;5000486;28;20057;-48
2021/07/20 08:47:38;;;;;;;8.27;7.50;;;;;;;37.37;25.68;94088.22;5036346;28;20048;-49
2021/07/20 08:50:24;;;;;;;8.05;7.35;;;;;;;37.31;25.45;94088.84;5012618;28;20046;-48
2021/07/20 08:53:05;;;;;;;7.18;6.57;;;;;;;37.29;25.78;94090.53;4995414;28;20057;-46
2021/07/20 08:55:39;;;;;;;7.43;6.68;;;;;;;37.01;26.27;94092.66;4997200;28;20058;-49
2021/07/20 08:58:25;;;;;;;8.52;6.65;;;;;;;37.77;25.86;94093.97;5032524;28;20061;-51
2021/07/20 09:01:04;;;;;;;7.25;6.65;;;;;;;37.80;25.37;94095.75;5036255;28;20041;-47
2021/07/20 09:03:45;;;;;;;7.25;6.57;;;;;;;37.93;25.48;94092.75;5019925;28;20365;-47
2021/07/20 09:06:49;;;;;;;6.85;6.25;;;;;;;37.72;25.33;94102.78;5001058;28;20054;-50
2021/07/20 09:09:27;;;;;;;6.72;6.13;;;;;;;37.63;24.99;94095.41;5033578;28;20053;-47
2021/07/20 09:12:04;;;;;;;7.05;5.93;;;;;;;37.03;25.44;94101.88;5034192;28;20364;-49
2021/07/20 09:14:39;;;;;;;6.50;5.90;;;;;;;37.12;25.31;94098.34;5036293;28;20050;-50
2021/07/20 09:17:35;;;;;;;6.53;6.03;;;;;;;37.11;25.68;94091.38;5034672;28;20052;-46
2021/07/20 09:20:06;;;;;;;7.35;5.68;;;;;;;37.37;25.24;94085.47;4994698;28;20369;-53
2021/07/20 09:22:44;;;;;;;6.50;5.95;;;;;;;37.57;25.60;94093.81;4996705;28;20049;-48
2021/07/20 09:25:25;;;;;;;7.10;6.07;;;;;;;38.12;24.58;94085.13;4996487;28;20042;-49
2021/07/20 09:28:04;;;;;;;9.48;6.25;;;;;;;38.37;24.30;94092.78;5010428;28;20050;-49
2021/07/20 09:30:36;;;;;;;7.13;6.43;;;;;;;37.80;24.84;94084.84;5014112;28;20046;-50
2021/07/20 09:33:09;;;;;;;8.13;6.80;;;;;;;37.64;24.87;94090.72;4995431;28;20061;-51
2021/07/20 09:36:01;;;;;;;7.78;6.63;;;;;;;37.81;24.85;94086.34;4996356;28;20050;-47
2021/07/20 09:38:43;;;;;;;;;;;;;;;37.48;25.10;94083.00;5034343;28;20056;-49
2021/07/20 09:41:33;;;;;;;7.40;6.53;;;;;;;37.75;24.55;94088.25;5035629;28;20238;-47
2021/07/20 09:44:33;;;;;;;9.48;8.57;;;;;;;37.74;24.63;94081.28;5013622;28;20057;-47
2021/07/20 09:47:08;;;;;;;7.35;6.68;;;;;;;38.17;23.85;94081.78;4997456;28;20045;-48
2021/07/20 09:49:38;;;;;;;6.95;6.35;;;;;;;38.40;24.55;94089.09;4990659;28;20042;-49
2021/07/20 09:52:13;;;;;;;8.37;6.50;;;;;;;38.29;23.22;94080.75;4994821;28;20054;-49
2021/07/20 09:54:59;;;;;;;7.20;6.60;;;;;;;37.62;24.53;94074.06;4978162;28;20285;-49
2021/07/20 09:57:51;;;;;;;12.30;11.10;;;;;;;38.04;23.87;94081.28;4989270;28;20365;-49
2021/07/20 10:00:19;;;;;;;11.50;10.32;;;;;;;37.99;23.75;94084.66;5014784;28;20048;-52
2021/07/20 10:02:56;;;;;;;10.25;9.35;;;;;;;37.95;24.06;94079.38;4997326;28;20468;-47
2021/07/20 10:05:27;;;;;;;26.77;24.13;;;;;;;38.45;23.81;94077.50;5014260;28;20050;-49
2021/07/20 10:07:59;;;;;;;13.82;12.52;;;;;;;38.88;23.31;94064.25;4992707;28;20064;-47
2021/07/20 10:10:34;;;;;;;15.05;13.60;;;;;;;38.98;23.31;94070.31;4998245;28;20046;-53
2021/07/20 10:13:04;;;;;;;10.45;8.40;;;;;;;38.47;23.93;94075.06;4997608;28;20061;-50
2021/07/20 10:15:46;;;;;;;9.18;7.07;;;;;;;38.95;23.08;94074.00;5015350;28;20049;-49
2021/07/20 10:18:38;;;;;;;7.47;6.80;;;;;;;39.05;23.61;94075.41;4997225;28;20062;-48
2021/07/20 10:21:06;;;;;;;7.15;6.45;;;;;;;39.34;23.38;94071.81;4983189;28;20057;-49
2021/07/20 10:23:49;;;;;;;7.00;6.40;;;;;;;38.52;23.49;94071.69;4995019;28;20042;-49
2021/07/20 10:26:27;;;;;;;6.55;5.95;;;;;;;38.38;23.28;94072.44;4978214;28;20058;-48
2021/07/20 10:29:05;;;;;;;6.75;6.15;;;;;;;38.21;23.35;94065.97;4977642;28;20073;-50
2021/07/20 10:31:56;;;;;;;6.85;6.30;;;;;;;38.14;23.48;94066.31;4977116;28;20054;-48
2021/07/20 10:34:28;;;;;;;7.00;6.30;;;;;;;38.18;23.58;94064.19;4970168;28;20050;-48
2021/07/20 10:37:05;;;;;;;6.95;6.28;;;;;;;38.68;23.30;94056.03;5003759;28;20057;-50
2021/07/20 10:40:00;;;;;;;7.05;6.45;;;;;;;38.85;22.98;94055.03;5015048;28;20083;-50
2021/07/20 10:42:59;;;;;;;6.43;5.93;;;;;;;39.55;21.93;94054.16;5004747;28;20325;-49
2021/07/20 10:45:32;;;;;;;7.40;6.70;;;;;;;39.23;22.06;94044.31;5000007;28;20057;-49
2021/07/20 10:48:10;;;;;;;7.70;7.03;;;;;;;39.05;22.34;94051.56;4991583;28;20057;-48
2021/07/20 10:50:51;;;;;;;9.52;7.35;;;;;;;39.07;22.34;94040.94;4997047;28;20056;-47
2021/07/20 10:53:40;;;;;;;7.80;7.10;;;;;;;39.43;21.70;94047.03;5014850;28;20058;-48
2021/07/20 10:56:19;;;;;;;8.65;7.85;;;;;;;39.26;21.68;94048.84;5013999;28;20061;-47
2021/07/20 10:59:07;;;;;;;7.85;7.05;;;;;;;39.20;21.68;94040.56;5014485;28;20060;-47
2021/07/20 11:02:01;;;;;;;7.60;7.00;;;;;;;38.60;22.78;94033.78;5013999;28;20045;-51
2021/07/20 11:04:50;;;;;;;10.50;9.57;;;;;;;38.61;22.42;94032.56;5014099;28;20050;-49
2021/07/20 11:07:25;;;;;;;9.98;9.00;;;;;;;38.58;22.37;94032.78;4996392;28;20045;-47
2021/07/20 11:09:53;;;;;;;11.77;10.57;;;;;;;38.93;22.46;94028.03;4997180;28;20058;-49
2021/07/20 11:12:24;;;;;;;9.20;8.35;;;;;;;38.89;22.15;94034.94;5014670;28;20065;-48
2021/07/20 11:14:52;;;;;;;9.38;8.48;;;;;;;39.14;22.00;94035.03;5014450;28;20479;-51
2021/07/20 11:17:22;;;;;;;7.93;7.18;;;;;;;38.89;21.91;94030.25;5014428;28;20054;-48
2021/07/20 11:19:51;;;;;;;8.40;7.70;;;;;;;39.00;22.02;94027.63;4997185;28;20069;-49
2021/07/20 11:22:19;;;;;;;8.13;7.45;;;;;;;38.78;22.30;94028.13;5014718;28;20050;-49
2021/07/20 11:24:47;;;;;;;7.70;7.00;;;;;;;39.14;21.59;94035.03;5014310;28;20054;-49
2021/07/20 11:27:17;;;;;;;7.65;7.05;;;;;;;39.43;21.49;94036.84;5013881;28;20057;-49
2021/07/20 11:29:44;;;;;;;7.85;7.05;;;;;;;39.58;21.07;94025.88;4996716;28;20041;-47
2021/07/20 11:32:22;;;;;;;7.72;7.03;;;;;;;39.77;21.05;94024.28;5013473;28;20050;-49
2021/07/20 11:35:04;;;;;;;7.88;7.20;;;;;;;39.95;21.16;94025.22;4996211;28;20050;-51
2021/07/20 11:37:36;;;;;;;7.72;7.13;;;;;;;39.72;21.44;94030.47;5003034;28;20053;-50
2021/07/20 11:40:07;;;;;;;8.45;7.75;;;;;;;39.73;21.41;94031.97;4996933;28;20046;-56
2021/07/20 11:42:45;;;;;;;8.85;8.10;;;;;;;39.98;21.71;94024.25;5000232;28;20057;-51
2021/07/20 11:45:13;;;;;;;8.50;7.68;;;;;;;39.98;21.84;94027.00;4995039;28;20338;-50
2021/07/20 11:47:55;;;;;;;8.60;7.82;;;;;;;40.04;21.52;94036.75;5005652;28;20503;-50
2021/07/20 11:50:36;;;;;;;7.85;7.18;;;;;;;39.66;21.66;94026.94;5015537;28;20356;-51
2021/07/20 11:53:44;;;;;;;8.82;8.02;;;;;;;39.06;22.24;94035.91;5017591;28;20330;-51
2021/07/20 11:56:28;;;;;;;10.38;9.48;;;;;;;39.37;21.77;94032.56;5017112;28;20054;-52
2021/07/20 11:59:32;;;;;;;13.25;12.10;;;;;;;39.08;21.84;94031.50;5015960;28;20053;-48
2021/07/20 12:02:33;;;;;;;17.63;15.95;;;;;;;39.42;22.08;94026.41;5017145;28;20483;-49
2021/07/20 12:05:21;;;;;;;;;;;;;;;39.29;22.04;94021.28;5017836;28;20056;-49